createdAt,value
2018-08-22T00:00:16.527Z,1005.78
2018-08-22T00:01:16.557Z,1005.76
2018-08-22T00:02:16.565Z,1005.79
2018-08-22T00:03:16.590Z,1005.77
2018-08-22T00:04:16.608Z,1005.79
2018-08-22T00:05:16.623Z,1005.78
2018-08-22T00:06:16.644Z,1005.75
2018-08-22T00:07:16.667Z,1005.73
2018-08-22T00:08:16.684Z,1005.73
2018-08-22T00:09:16.711Z,1005.73
2018-08-22T00:10:16.724Z,1005.73
2018-08-22T00:11:16.877Z,1005.72
2018-08-22T00:12:16.762Z,1005.71
2018-08-22T00:13:16.783Z,1005.70
2018-08-22T00:14:16.803Z,1005.69
2018-08-22T00:15:16.854Z,1005.69
2018-08-22T00:16:16.838Z,1005.67
2018-08-22T00:17:16.861Z,1005.62
2018-08-22T00:18:16.879Z,1005.64
2018-08-22T00:19:16.898Z,1005.63
2018-08-22T00:20:16.920Z,1005.63
2018-08-22T00:21:16.943Z,1005.62
2018-08-22T00:22:16.955Z,1005.60
2018-08-22T00:23:16.975Z,1005.61
2018-08-22T00:24:16.994Z,1005.59
2018-08-22T00:25:17.015Z,1005.57
2018-08-22T00:26:17.035Z,1005.52
2018-08-22T00:27:17.052Z,1005.56
2018-08-22T00:28:17.075Z,1005.55
2018-08-22T00:29:17.149Z,1005.56
2018-08-22T00:30:17.131Z,1005.53
2018-08-22T00:31:17.129Z,1005.55
2018-08-22T00:32:17.149Z,1005.55
2018-08-22T00:33:17.170Z,1005.54
2018-08-22T00:34:17.194Z,1005.57
2018-08-22T00:35:17.211Z,1005.53
2018-08-22T00:36:17.230Z,1005.54
2018-08-22T00:37:17.247Z,1005.53
2018-08-22T00:38:17.265Z,1005.52
2018-08-22T00:39:17.290Z,1005.56
2018-08-22T00:40:17.307Z,1005.53
2018-08-22T00:41:17.329Z,1005.52
2018-08-22T00:42:17.348Z,1005.54
2018-08-22T00:43:17.366Z,1005.55
2018-08-22T00:44:17.384Z,1005.54
2018-08-22T00:45:17.401Z,1005.51
2018-08-22T00:46:17.426Z,1005.52
2018-08-22T00:47:17.445Z,1005.49
2018-08-22T00:48:17.459Z,1005.51
2018-08-22T00:49:17.492Z,1005.52
2018-08-22T00:50:17.500Z,1005.52
2018-08-22T00:51:17.523Z,1005.51
2018-08-22T00:52:17.543Z,1005.56
2018-08-22T00:53:17.556Z,1005.53
2018-08-22T00:54:17.580Z,1005.52
2018-08-22T00:55:17.598Z,1005.52
2018-08-22T00:56:17.631Z,1005.48
2018-08-22T00:57:17.675Z,1005.48
2018-08-22T00:58:17.748Z,1005.53
2018-08-22T00:59:17.674Z,1005.47
2018-08-22T01:00:17.693Z,1005.48
2018-08-22T01:01:17.711Z,1005.46
2018-08-22T01:02:17.739Z,1005.46
2018-08-22T01:03:17.756Z,1005.45
2018-08-22T01:04:17.771Z,1005.46
2018-08-22T01:05:17.795Z,1005.43
2018-08-22T01:06:17.879Z,1005.42
2018-08-22T01:07:17.832Z,1005.41
2018-08-22T01:08:17.848Z,1005.39
2018-08-22T01:09:17.867Z,1005.43
2018-08-22T01:10:17.886Z,1005.42
2018-08-22T01:11:17.905Z,1005.40
2018-08-22T01:12:17.928Z,1005.39
2018-08-22T01:13:17.947Z,1005.43
2018-08-22T01:14:17.967Z,1005.39
2018-08-22T01:15:17.994Z,1005.40
2018-08-22T01:16:18.004Z,1005.41
2018-08-22T01:17:18.022Z,1005.38
2018-08-22T01:18:18.041Z,1005.35
2018-08-22T01:19:18.061Z,1005.40
2018-08-22T01:20:18.079Z,1005.37
2018-08-22T01:21:18.100Z,1005.38
2018-08-22T01:22:18.119Z,1005.36
2018-08-22T01:23:18.135Z,1005.38
2018-08-22T01:24:18.165Z,1005.38
2018-08-22T01:25:18.177Z,1005.38
2018-08-22T01:26:18.196Z,1005.36
2018-08-22T01:27:18.213Z,1005.40
2018-08-22T01:28:18.237Z,1005.36
2018-08-22T01:29:18.253Z,1005.38
2018-08-22T01:30:18.281Z,1005.37
2018-08-22T01:31:18.293Z,1005.38
2018-08-22T01:32:18.312Z,1005.34
2018-08-22T01:33:18.328Z,1005.32
2018-08-22T01:34:18.347Z,1005.32
2018-08-22T01:35:18.369Z,1005.33
2018-08-22T01:36:18.387Z,1005.33
2018-08-22T01:37:18.405Z,1005.29
2018-08-22T01:38:18.425Z,1005.33
2018-08-22T01:39:18.446Z,1005.33
2018-08-22T01:40:18.464Z,1005.34
2018-08-22T01:41:18.486Z,1005.37
2018-08-22T01:42:18.503Z,1005.36
2018-08-22T01:43:18.525Z,1005.33
2018-08-22T01:44:18.541Z,1005.30
2018-08-22T01:45:18.558Z,1005.33
2018-08-22T01:46:18.582Z,1005.32
2018-08-22T01:47:18.599Z,1005.34
2018-08-22T01:48:18.618Z,1005.32
2018-08-22T01:49:18.640Z,1005.30
2018-08-22T01:50:18.657Z,1005.29
2018-08-22T01:51:18.737Z,1005.32
2018-08-22T01:52:18.696Z,1005.28
2018-08-22T01:53:18.717Z,1005.29
2018-08-22T01:54:18.734Z,1005.29
2018-08-22T01:55:18.754Z,1005.29
2018-08-22T01:56:18.780Z,1005.30
2018-08-22T01:57:18.792Z,1005.25
2018-08-22T01:58:18.809Z,1005.29
2018-08-22T01:59:18.829Z,1005.30
2018-08-22T02:00:18.848Z,1005.24
2018-08-22T02:01:18.869Z,1005.27
2018-08-22T02:02:18.885Z,1005.27
2018-08-22T02:03:18.907Z,1005.25
2018-08-22T02:04:18.931Z,1005.25
2018-08-22T02:05:18.943Z,1005.24
2018-08-22T02:06:18.964Z,1005.25
2018-08-22T02:07:18.984Z,1005.22
2018-08-22T02:08:19.001Z,1005.26
2018-08-22T02:09:19.022Z,1005.23
2018-08-22T02:10:19.039Z,1005.21
2018-08-22T02:11:19.057Z,1005.23
2018-08-22T02:12:19.076Z,1005.23
2018-08-22T02:13:19.100Z,1005.17
2018-08-22T02:14:19.117Z,1005.15
2018-08-22T02:15:19.136Z,1005.18
2018-08-22T02:16:19.151Z,1005.16
2018-08-22T02:17:19.173Z,1005.14
2018-08-22T02:18:19.199Z,1005.17
2018-08-22T02:19:19.211Z,1005.16
2018-08-22T02:20:19.234Z,1005.11
2018-08-22T02:21:19.252Z,1005.16
2018-08-22T02:22:19.269Z,1005.18
2018-08-22T02:23:19.287Z,1005.15
2018-08-22T02:24:19.310Z,1005.16
2018-08-22T02:25:19.349Z,1005.18
2018-08-22T02:26:19.345Z,1005.17
2018-08-22T02:27:19.367Z,1005.13
2018-08-22T02:28:19.385Z,1005.13
2018-08-22T02:29:19.402Z,1005.17
2018-08-22T02:30:19.421Z,1005.15
2018-08-22T02:31:19.441Z,1005.17
2018-08-22T02:32:19.458Z,1005.17
2018-08-22T02:33:19.480Z,1005.16
2018-08-22T02:34:19.497Z,1005.16
2018-08-22T02:35:19.523Z,1005.19
2018-08-22T02:36:19.536Z,1005.13
2018-08-22T02:37:19.555Z,1005.12
2018-08-22T02:38:19.583Z,1005.10
2018-08-22T02:39:19.601Z,1005.14
2018-08-22T02:40:19.611Z,1005.13
2018-08-22T02:41:19.633Z,1005.10
2018-08-22T02:42:19.651Z,1005.12
2018-08-22T02:43:19.671Z,1005.12
2018-08-22T02:44:19.687Z,1005.11
2018-08-22T02:45:19.708Z,1005.06
2018-08-22T02:46:19.724Z,1005.10
2018-08-22T02:47:19.744Z,1005.07
2018-08-22T02:48:19.765Z,1005.09
2018-08-22T02:49:19.783Z,1005.04
2018-08-22T02:50:19.805Z,1005.07
2018-08-22T02:51:19.829Z,1005.06
2018-08-22T02:52:19.840Z,1005.07
2018-08-22T02:53:19.860Z,1005.08
2018-08-22T02:54:19.880Z,1005.11
2018-08-22T02:55:19.902Z,1005.06
2018-08-22T02:56:19.916Z,1005.10
2018-08-22T02:57:19.937Z,1005.09
2018-08-22T02:58:19.959Z,1005.10
2018-08-22T02:59:19.974Z,1005.06
2018-08-22T03:00:19.993Z,1005.02
2018-08-22T03:01:20.017Z,1005.04
2018-08-22T03:02:20.031Z,1005.03
2018-08-22T03:03:20.053Z,1005.05
2018-08-22T03:04:20.068Z,1005.02
2018-08-22T03:05:20.087Z,1005.06
2018-08-22T03:06:20.107Z,1005.04
2018-08-22T03:07:20.126Z,1005.06
2018-08-22T03:08:20.148Z,1005.05
2018-08-22T03:09:20.168Z,1005.05
2018-08-22T03:10:20.185Z,1005.04
2018-08-22T03:11:20.205Z,1005.02
2018-08-22T03:12:20.233Z,1005.05
2018-08-22T03:13:20.242Z,1005.00
2018-08-22T03:14:20.262Z,1005.01
2018-08-22T03:15:20.281Z,1005.00
2018-08-22T03:16:20.301Z,1004.99
2018-08-22T03:17:20.319Z,1005.00
2018-08-22T03:18:20.335Z,1004.99
2018-08-22T03:19:20.357Z,1005.00
2018-08-22T03:20:20.377Z,1004.96
2018-08-22T03:21:20.395Z,1004.97
2018-08-22T03:22:20.414Z,1004.97
2018-08-22T03:23:20.431Z,1004.96
2018-08-22T03:24:20.451Z,1004.97
2018-08-22T03:25:20.468Z,1004.94
2018-08-22T03:26:20.493Z,1004.97
2018-08-22T03:27:20.512Z,1004.91
2018-08-22T03:28:20.529Z,1004.97
2018-08-22T03:29:20.548Z,1004.95
2018-08-22T03:30:20.571Z,1004.93
2018-08-22T03:31:20.594Z,1004.91
2018-08-22T03:32:20.604Z,1004.91
2018-08-22T03:33:20.627Z,1004.88
2018-08-22T03:34:20.644Z,1004.91
2018-08-22T03:35:20.664Z,1004.90
2018-08-22T03:36:20.683Z,1004.92
2018-08-22T03:37:20.708Z,1004.97
2018-08-22T03:38:20.724Z,1004.94
2018-08-22T03:39:20.740Z,1004.90
2018-08-22T03:40:20.757Z,1004.89
2018-08-22T03:41:20.779Z,1004.88
2018-08-22T03:42:20.798Z,1004.88
2018-08-22T03:43:20.820Z,1004.89
2018-08-22T03:44:20.838Z,1004.89
2018-08-22T03:45:20.858Z,1004.93
2018-08-22T03:46:20.874Z,1004.95
2018-08-22T03:47:20.898Z,1004.90
2018-08-22T03:48:20.919Z,1004.88
2018-08-22T03:49:20.938Z,1004.91
2018-08-22T03:50:20.956Z,1004.91
2018-08-22T03:51:20.976Z,1004.92
2018-08-22T03:52:20.993Z,1004.90
2018-08-22T03:53:21.010Z,1004.91
2018-08-22T03:54:21.033Z,1004.89
2018-08-22T03:55:21.050Z,1004.92
2018-08-22T03:56:21.070Z,1004.93
2018-08-22T03:57:21.093Z,1004.94
2018-08-22T03:58:21.115Z,1004.96
2018-08-22T03:59:21.129Z,1004.98
2018-08-22T04:00:21.148Z,1004.98
2018-08-22T04:01:21.167Z,1004.94
2018-08-22T04:02:21.185Z,1004.94
2018-08-22T04:03:21.208Z,1004.95
2018-08-22T04:04:21.226Z,1004.98
2018-08-22T04:05:21.246Z,1004.95
2018-08-22T04:06:21.266Z,1004.95
2018-08-22T04:07:21.284Z,1004.94
2018-08-22T04:08:21.304Z,1004.98
2018-08-22T04:09:21.322Z,1004.96
2018-08-22T04:10:21.349Z,1004.95
2018-08-22T04:11:21.365Z,1004.96
2018-08-22T04:12:21.379Z,1004.94
2018-08-22T04:13:21.399Z,1004.92
2018-08-22T04:14:21.419Z,1004.93
2018-08-22T04:15:21.441Z,1004.90
2018-08-22T04:16:21.460Z,1004.90
2018-08-22T04:17:21.476Z,1004.92
2018-08-22T04:18:21.501Z,1004.92
2018-08-22T04:19:21.533Z,1004.91
2018-08-22T04:20:21.535Z,1004.90
2018-08-22T04:21:21.555Z,1004.91
2018-08-22T04:22:21.575Z,1004.91
2018-08-22T04:23:21.595Z,1004.93
2018-08-22T04:24:21.619Z,1004.89
2018-08-22T04:25:21.633Z,1004.93
2018-08-22T04:26:21.654Z,1004.95
2018-08-22T04:27:21.679Z,1004.95
2018-08-22T04:28:21.692Z,1004.94
2018-08-22T04:29:21.711Z,1004.98
2018-08-22T04:30:21.728Z,1004.97
2018-08-22T04:31:21.751Z,1004.97
2018-08-22T04:32:21.768Z,1004.98
2018-08-22T04:33:21.789Z,1004.96
2018-08-22T04:34:21.807Z,1004.98
2018-08-22T04:35:21.826Z,1004.98
2018-08-22T04:36:21.849Z,1005.02
2018-08-22T04:37:21.922Z,1005.02
2018-08-22T04:38:21.888Z,1005.03
2018-08-22T04:39:21.908Z,1005.04
2018-08-22T04:40:21.927Z,1005.06
2018-08-22T04:41:21.946Z,1005.05
2018-08-22T04:42:21.966Z,1005.08
2018-08-22T04:43:21.994Z,1005.07
2018-08-22T04:44:22.002Z,1005.02
2018-08-22T04:45:22.021Z,1005.01
2018-08-22T04:46:22.045Z,1005.02
2018-08-22T04:47:22.063Z,1005.03
2018-08-22T04:48:22.088Z,1005.06
2018-08-22T04:49:22.103Z,1005.07
2018-08-22T04:50:22.120Z,1005.09
2018-08-22T04:51:22.141Z,1005.11
2018-08-22T04:52:22.158Z,1005.08
2018-08-22T04:53:22.175Z,1005.03
2018-08-22T04:54:22.198Z,1005.00
2018-08-22T04:55:22.219Z,1005.03
2018-08-22T04:56:22.238Z,1005.05
2018-08-22T04:57:22.257Z,1005.08
2018-08-22T04:58:22.280Z,1005.06
2018-08-22T04:59:22.297Z,1005.06
2018-08-22T05:00:22.313Z,1005.03
2018-08-22T05:01:22.332Z,1005.06
2018-08-22T05:02:22.354Z,1005.05
2018-08-22T05:03:22.378Z,1005.08
2018-08-22T05:04:22.392Z,1005.09
2018-08-22T05:05:22.415Z,1005.08
2018-08-22T05:06:22.438Z,1005.08
2018-08-22T05:07:22.452Z,1005.10
2018-08-22T05:08:22.472Z,1005.07
2018-08-22T05:09:22.495Z,1005.08
2018-08-22T05:10:22.512Z,1005.05
2018-08-22T05:11:22.535Z,1005.05
2018-08-22T05:12:22.552Z,1004.98
2018-08-22T05:13:22.570Z,1005.06
2018-08-22T05:14:22.594Z,1005.06
2018-08-22T05:15:22.613Z,1005.10
2018-08-22T05:16:22.633Z,1005.08
2018-08-22T05:17:22.652Z,1005.07
2018-08-22T05:18:22.671Z,1005.05
2018-08-22T05:19:22.689Z,1005.07
2018-08-22T05:20:22.711Z,1005.08
2018-08-22T05:21:22.736Z,1005.06
2018-08-22T05:22:22.751Z,1005.08
2018-08-22T05:23:22.772Z,1005.11
2018-08-22T05:24:22.789Z,1005.08
2018-08-22T05:25:22.808Z,1005.10
2018-08-22T05:26:22.831Z,1005.10
2018-08-22T05:27:22.851Z,1005.07
2018-08-22T05:28:22.870Z,1005.06
2018-08-22T05:29:22.891Z,1005.07
2018-08-22T05:30:22.911Z,1005.06
2018-08-22T05:31:22.934Z,1005.03
2018-08-22T05:32:22.954Z,1005.05
2018-08-22T05:33:22.970Z,1005.08
2018-08-22T05:34:22.989Z,1005.07
2018-08-22T05:35:23.012Z,1005.08
2018-08-22T05:36:23.030Z,1005.14
2018-08-22T05:37:23.052Z,1005.09
2018-08-22T05:38:23.070Z,1005.05
2018-08-22T05:39:23.090Z,1005.10
2018-08-22T05:40:23.112Z,1005.12
2018-08-22T05:41:23.128Z,1005.12
2018-08-22T05:42:23.155Z,1005.16
2018-08-22T05:43:23.172Z,1005.18
2018-08-22T05:44:23.191Z,1005.24
2018-08-22T05:45:23.214Z,1005.28
2018-08-22T05:46:23.232Z,1005.29
2018-08-22T05:47:23.257Z,1005.33
2018-08-22T05:48:23.271Z,1005.25
2018-08-22T05:49:23.293Z,1005.30
2018-08-22T05:50:23.312Z,1005.34
2018-08-22T05:51:23.335Z,1005.38
2018-08-22T05:52:23.354Z,1005.40
2018-08-22T05:53:23.403Z,1005.40
2018-08-22T05:54:23.399Z,1005.44
2018-08-22T05:55:23.415Z,1005.48
2018-08-22T05:56:23.434Z,1005.54
2018-08-22T05:57:23.457Z,1005.59
2018-08-22T05:58:23.482Z,1005.65
2018-08-22T05:59:23.499Z,1005.69
2018-08-22T06:00:23.518Z,1005.64
2018-08-22T06:01:23.539Z,1005.71
2018-08-22T06:02:23.559Z,1005.73
2018-08-22T06:03:23.604Z,1006.92
2018-08-22T06:04:23.601Z,1007.05
2018-08-22T06:05:23.623Z,1007.11
2018-08-22T06:06:23.645Z,1007.11
2018-08-22T06:07:23.668Z,1007.39
2018-08-22T06:08:23.687Z,1007.16
2018-08-22T06:09:23.723Z,1006.52
2018-08-22T06:10:23.732Z,1006.46
2018-08-22T06:11:23.754Z,1007.69
2018-08-22T06:12:23.779Z,1006.95
2018-08-22T06:13:23.810Z,1007.29
2018-08-22T06:14:23.829Z,1008.03
2018-08-22T06:15:23.849Z,1007.95
2018-08-22T06:16:23.869Z,1007.69
2018-08-22T06:17:23.895Z,1008.02
2018-08-22T06:18:23.917Z,1007.51
2018-08-22T06:19:23.944Z,1007.86
2018-08-22T06:20:23.974Z,1006.76
2018-08-22T06:21:23.990Z,1008.24
2018-08-22T06:22:24.016Z,1008.11
2018-08-22T06:23:24.042Z,1008.60
2018-08-22T06:24:24.071Z,1008.60
2018-08-22T06:25:24.130Z,1008.62
2018-08-22T06:26:24.116Z,1008.61
2018-08-22T06:27:24.143Z,1008.92
2018-08-22T06:28:24.168Z,1008.93
2018-08-22T06:29:24.196Z,1008.74
2018-08-22T06:30:24.219Z,1008.85
2018-08-22T06:31:24.249Z,1009.02
2018-08-22T06:32:24.267Z,1009.18
2018-08-22T06:33:24.300Z,1008.89
2018-08-22T06:34:24.332Z,1009.38
2018-08-22T06:35:24.349Z,1009.29
2018-08-22T06:36:24.458Z,1009.48
2018-08-22T06:37:24.402Z,1008.75
2018-08-22T06:38:24.436Z,1008.19
2018-08-22T06:39:24.464Z,1009.42
2018-08-22T06:40:24.482Z,1009.89
2018-08-22T06:41:24.508Z,1010.30
2018-08-22T06:42:24.534Z,1010.15
2018-08-22T06:43:24.566Z,1010.77
2018-08-22T06:44:24.591Z,1010.70
2018-08-22T06:45:24.614Z,1010.56
2018-08-22T06:46:24.646Z,1010.82
2018-08-22T06:47:24.670Z,1011.07
2018-08-22T06:48:24.700Z,1011.07
2018-08-22T06:49:24.732Z,1011.18
2018-08-22T06:50:24.880Z,1011.86
2018-08-22T06:51:24.782Z,1011.90
2018-08-22T06:52:24.807Z,1011.82
2018-08-22T06:53:24.835Z,1012.50
2018-08-22T06:54:24.886Z,1012.81
2018-08-22T06:55:24.895Z,1012.27
2018-08-22T06:56:24.924Z,1011.99
2018-08-22T06:57:24.954Z,1012.18
2018-08-22T06:58:24.983Z,1012.91
2018-08-22T06:59:25.012Z,1012.41
2018-08-22T07:00:25.035Z,1013.02
2018-08-22T07:01:25.063Z,1013.94
2018-08-22T07:02:25.095Z,1014.38
2018-08-22T07:03:25.123Z,1014.98
2018-08-22T07:04:25.159Z,1015.11
2018-08-22T07:05:25.180Z,1015.35
2018-08-22T07:06:25.205Z,1015.84
2018-08-22T07:07:25.236Z,1016.56
2018-08-22T07:08:25.263Z,1017.52
2018-08-22T07:09:25.295Z,1018.12
2018-08-22T07:10:25.322Z,1017.87
2018-08-22T07:11:25.355Z,1017.78
2018-08-22T07:12:25.380Z,1018.59
2018-08-22T07:13:25.410Z,1018.85
2018-08-22T07:14:25.440Z,1019.59
2018-08-22T07:15:25.476Z,1017.98
2018-08-22T07:16:25.529Z,1018.92
2018-08-22T07:17:25.526Z,1019.36
2018-08-22T07:18:25.556Z,1019.73
2018-08-22T07:19:25.587Z,1019.72
2018-08-22T07:20:25.624Z,1020.15
2018-08-22T07:21:25.652Z,1020.13
2018-08-22T07:22:25.678Z,1021.15
2018-08-22T07:23:25.708Z,1021.57
2018-08-22T07:24:25.734Z,1020.83
2018-08-22T07:25:25.763Z,1021.24
2018-08-22T07:26:25.790Z,1021.26
2018-08-22T07:27:25.822Z,1021.70
2018-08-22T07:28:25.850Z,1021.93
2018-08-22T07:29:25.882Z,1022.20
2018-08-22T07:30:25.910Z,1023.03
2018-08-22T07:31:25.938Z,1023.62
2018-08-22T07:32:25.966Z,1018.91
2018-08-22T07:33:26.004Z,1026.47
2018-08-22T07:34:26.027Z,1021.59
2018-08-22T07:35:26.059Z,1023.90
2018-08-22T07:36:26.086Z,1026.94
2018-08-22T07:37:26.117Z,1026.58
2018-08-22T07:38:26.148Z,1023.68
2018-08-22T07:39:26.176Z,1023.58
2018-08-22T07:40:26.207Z,1023.99
2018-08-22T07:41:26.241Z,1026.22
2018-08-22T07:42:26.269Z,1025.72
2018-08-22T07:43:26.296Z,1022.88
2018-08-22T07:44:26.329Z,1025.50
2018-08-22T07:45:26.353Z,1026.32
2018-08-22T07:46:26.382Z,1024.06
2018-08-22T07:47:26.423Z,1021.55
2018-08-22T07:48:26.450Z,1025.27
2018-08-22T07:49:26.484Z,1027.83
2018-08-22T07:50:26.505Z,1028.73
2018-08-22T07:51:26.534Z,1029.94
2018-08-22T07:52:26.563Z,1029.24
2018-08-22T07:53:26.701Z,1029.17
2018-08-22T07:54:26.625Z,1027.98
2018-08-22T07:55:26.655Z,1027.90
2018-08-22T07:56:26.716Z,1029.52
2018-08-22T07:57:26.713Z,1030.67
2018-08-22T07:58:26.755Z,1028.94
2018-08-22T07:59:26.778Z,1026.78
2018-08-22T08:00:26.804Z,1026.68
2018-08-22T08:01:26.832Z,1028.45
2018-08-22T08:02:26.862Z,1027.40
2018-08-22T08:03:26.890Z,1028.26
2018-08-22T08:04:26.918Z,1028.34
2018-08-22T08:05:26.999Z,1027.12
2018-08-22T08:06:26.978Z,1027.15
2018-08-22T08:07:27.008Z,1026.08
2018-08-22T08:08:27.043Z,1025.95
2018-08-22T08:09:27.067Z,1025.10
2018-08-22T08:10:27.099Z,1025.11
2018-08-22T08:11:27.128Z,1026.88
2018-08-22T08:12:27.154Z,1027.24
2018-08-22T08:13:27.180Z,1026.60
2018-08-22T08:14:27.218Z,1026.63
2018-08-22T08:15:27.245Z,1025.47
2018-08-22T08:16:27.271Z,1027.11
2018-08-22T08:17:27.500Z,1026.28
2018-08-22T08:18:27.376Z,1027.58
2018-08-22T08:19:27.361Z,1027.53
2018-08-22T08:20:27.565Z,1024.27
2018-08-22T08:21:27.423Z,1023.04
2018-08-22T08:22:27.470Z,1026.34
2018-08-22T08:23:27.533Z,1024.50
2018-08-22T08:24:27.715Z,1022.76
2018-08-22T08:25:27.562Z,1021.71
2018-08-22T08:26:27.669Z,1021.21
2018-08-22T08:27:27.635Z,1021.71
2018-08-22T08:28:27.778Z,1022.62
2018-08-22T08:29:27.747Z,1022.91
2018-08-22T08:30:27.693Z,1021.03
2018-08-22T08:31:27.918Z,1023.17
2018-08-22T08:32:27.841Z,1022.20
2018-08-22T08:33:27.928Z,1014.96
2018-08-22T08:34:27.855Z,1006.14
2018-08-22T08:35:27.880Z,1005.57
2018-08-22T08:36:27.882Z,1005.56
2018-08-22T08:37:28.042Z,1005.45
2018-08-22T08:38:27.928Z,1005.44
2018-08-22T08:39:27.964Z,1005.38
2018-08-22T08:40:27.980Z,1005.33
2018-08-22T08:41:28.132Z,1005.36
2018-08-22T08:42:28.065Z,1005.29
2018-08-22T08:43:28.170Z,1005.32
2018-08-22T08:44:28.166Z,1005.32
2018-08-22T08:45:28.143Z,1005.29
2018-08-22T08:46:28.154Z,1005.26
2018-08-22T08:47:28.151Z,1005.32
2018-08-22T08:48:28.172Z,1005.27
2018-08-22T08:49:28.203Z,1005.24
2018-08-22T08:50:28.226Z,1005.23
2018-08-22T08:51:28.264Z,1005.19
2018-08-22T08:52:28.464Z,1005.13
2018-08-22T08:53:28.434Z,1005.13
2018-08-22T08:54:28.370Z,1005.09
2018-08-22T08:55:28.382Z,1005.13
2018-08-22T08:56:28.399Z,1005.07
2018-08-22T08:57:28.539Z,1005.07
2018-08-22T08:58:28.429Z,1005.05
2018-08-22T08:59:28.649Z,1004.99
2018-08-22T09:00:28.606Z,1004.96
2018-08-22T09:01:28.564Z,1004.98
2018-08-22T09:02:28.603Z,1004.99
2018-08-22T09:03:28.621Z,1004.98
2018-08-22T09:04:28.720Z,1005.01
2018-08-22T09:05:28.690Z,1004.97
2018-08-22T09:06:28.748Z,1004.99
2018-08-22T09:07:28.701Z,1004.96
2018-08-22T09:08:28.761Z,1004.96
2018-08-22T09:09:28.774Z,1004.98
2018-08-22T09:10:28.748Z,1004.95
2018-08-22T09:11:28.791Z,1004.95
2018-08-22T09:12:28.896Z,1004.89
2018-08-22T09:13:28.859Z,1004.89
2018-08-22T09:14:28.878Z,1004.82
2018-08-22T09:15:28.875Z,1004.81
2018-08-22T09:16:28.922Z,1004.84
2018-08-22T09:17:28.910Z,1004.75
2018-08-22T09:18:28.933Z,1004.76
2018-08-22T09:19:29.058Z,1004.71
2018-08-22T09:20:28.981Z,1004.71
2018-08-22T09:21:29.050Z,1004.73
2018-08-22T09:22:29.032Z,1004.68
2018-08-22T09:23:29.058Z,1004.70
2018-08-22T09:24:29.083Z,1004.66
2018-08-22T09:25:29.272Z,1004.64
2018-08-22T09:26:29.133Z,1004.63
2018-08-22T09:27:29.165Z,1004.58
2018-08-22T09:28:29.200Z,1004.57
2018-08-22T09:29:29.252Z,1004.60
2018-08-22T09:30:29.262Z,1004.54
2018-08-22T09:31:29.294Z,1004.54
2018-08-22T09:32:29.325Z,1004.54
2018-08-22T09:33:29.335Z,1004.53
2018-08-22T09:34:29.359Z,1004.48
2018-08-22T09:35:29.508Z,1004.47
2018-08-22T09:36:29.444Z,1004.45
2018-08-22T09:37:29.477Z,1004.46
2018-08-22T09:38:29.492Z,1004.45
2018-08-22T09:39:29.576Z,1004.44
2018-08-22T09:40:29.569Z,1004.37
2018-08-22T09:41:29.682Z,1004.34
2018-08-22T09:42:29.582Z,1004.35
2018-08-22T09:43:29.632Z,1004.33
2018-08-22T09:44:29.707Z,1004.28
2018-08-22T09:45:29.613Z,1004.28
2018-08-22T09:46:29.765Z,1004.26
2018-08-22T09:47:29.721Z,1004.28
2018-08-22T09:48:29.819Z,1004.24
2018-08-22T09:49:29.811Z,1004.22
2018-08-22T09:50:29.822Z,1004.21
2018-08-22T09:51:29.749Z,1004.15
2018-08-22T09:52:29.773Z,1004.12
2018-08-22T09:53:29.796Z,1004.08
2018-08-22T09:54:29.829Z,1004.09
2018-08-22T09:55:29.850Z,1004.09
2018-08-22T09:56:29.874Z,1004.06
2018-08-22T09:57:30.006Z,1004.06
2018-08-22T09:58:30.095Z,1004.06
2018-08-22T09:59:29.997Z,1003.98
2018-08-22T10:00:30.097Z,1003.95
2018-08-22T10:01:30.115Z,1003.96
2018-08-22T10:02:30.041Z,1003.92
2018-08-22T10:03:30.167Z,1003.92
2018-08-22T10:04:30.070Z,1003.94
2018-08-22T10:05:30.140Z,1003.92
2018-08-22T10:06:30.165Z,1003.94
2018-08-22T10:07:30.325Z,1003.94
2018-08-22T10:08:30.245Z,1003.95
2018-08-22T10:09:30.196Z,1003.92
2018-08-22T10:10:30.262Z,1003.95
2018-08-22T10:11:30.294Z,1003.93
2018-08-22T10:12:30.389Z,1003.90
2018-08-22T10:13:30.395Z,1003.94
2018-08-22T10:14:30.347Z,1003.98
2018-08-22T10:15:30.536Z,1003.95
2018-08-22T10:16:30.425Z,1003.93
2018-08-22T10:17:30.424Z,1003.96
2018-08-22T10:18:30.426Z,1003.88
2018-08-22T10:19:30.462Z,1003.86
2018-08-22T10:20:30.482Z,1003.84
2018-08-22T10:21:30.493Z,1003.81
2018-08-22T10:22:30.518Z,1003.78
2018-08-22T10:23:30.543Z,1003.75
2018-08-22T10:24:30.567Z,1003.73
2018-08-22T10:25:30.593Z,1003.73
2018-08-22T10:26:30.665Z,1003.69
2018-08-22T10:27:30.641Z,1003.69
2018-08-22T10:28:30.668Z,1003.67
2018-08-22T10:29:30.690Z,1003.63
2018-08-22T10:30:30.719Z,1003.60
2018-08-22T10:31:30.751Z,1003.58
2018-08-22T10:32:30.793Z,1003.56
2018-08-22T10:33:30.791Z,1003.56
2018-08-22T10:34:30.819Z,1003.55
2018-08-22T10:35:30.844Z,1003.52
2018-08-22T10:36:30.865Z,1003.51
2018-08-22T10:37:30.891Z,1003.46
2018-08-22T10:38:30.932Z,1003.42
2018-08-22T10:39:30.958Z,1003.42
2018-08-22T10:40:30.969Z,1003.43
2018-08-22T10:41:30.990Z,1003.40
2018-08-22T10:42:31.067Z,1003.40
2018-08-22T10:43:31.042Z,1003.37
2018-08-22T10:44:31.096Z,1003.39
2018-08-22T10:45:31.092Z,1003.39
2018-08-22T10:46:31.115Z,1003.37
2018-08-22T10:47:31.146Z,1003.35
2018-08-22T10:48:31.174Z,1003.30
2018-08-22T10:49:31.190Z,1003.30
2018-08-22T10:50:31.226Z,1003.29
2018-08-22T10:51:31.241Z,1003.33
2018-08-22T10:52:31.265Z,1003.25
2018-08-22T10:53:31.297Z,1003.31
2018-08-22T10:54:31.316Z,1003.29
2018-08-22T10:55:31.338Z,1003.29
2018-08-22T10:56:31.364Z,1003.28
2018-08-22T10:57:31.389Z,1003.24
2018-08-22T10:58:31.417Z,1003.23
2018-08-22T10:59:31.442Z,1003.24
2018-08-22T11:00:31.472Z,1003.26
2018-08-22T11:01:31.489Z,1003.26
2018-08-22T11:02:31.516Z,1003.26
2018-08-22T11:03:31.544Z,1003.24
2018-08-22T11:04:31.566Z,1003.28
2018-08-22T11:05:31.593Z,1003.24
2018-08-22T11:06:31.614Z,1003.24
2018-08-22T11:07:31.640Z,1003.22
2018-08-22T11:08:31.664Z,1003.20
2018-08-22T11:09:31.690Z,1003.23
2018-08-22T11:10:31.715Z,1003.22
2018-08-22T11:11:31.743Z,1003.22
2018-08-22T11:12:31.773Z,1003.20
2018-08-22T11:13:31.790Z,1003.18
2018-08-22T11:14:31.815Z,1003.23
2018-08-22T11:15:31.852Z,1003.19
2018-08-22T11:16:31.866Z,1003.17
2018-08-22T11:17:31.889Z,1003.20
2018-08-22T11:18:31.916Z,1003.18
2018-08-22T11:19:31.948Z,1003.13
2018-08-22T11:20:31.965Z,1003.10
2018-08-22T11:21:31.991Z,1003.10
2018-08-22T11:22:32.072Z,1003.07
2018-08-22T11:23:32.046Z,1003.07
2018-08-22T11:24:32.069Z,1003.07
2018-08-22T11:25:32.093Z,1003.06
2018-08-22T11:26:32.120Z,1003.05
2018-08-22T11:27:32.148Z,1003.06
2018-08-22T11:28:32.172Z,1003.05
2018-08-22T11:29:32.197Z,1003.02
2018-08-22T11:30:32.221Z,1003.04
2018-08-22T11:31:32.250Z,1003.06
2018-08-22T11:32:32.285Z,1003.06
2018-08-22T11:33:32.298Z,1003.04
2018-08-22T11:34:32.402Z,1003.02
2018-08-22T11:35:32.350Z,1003.00
2018-08-22T11:36:32.374Z,1003.03
2018-08-22T11:37:32.401Z,1002.96
2018-08-22T11:38:32.425Z,1002.99
2018-08-22T11:39:32.453Z,1002.96
2018-08-22T11:40:32.476Z,1002.94
2018-08-22T11:41:32.503Z,1002.93
2018-08-22T11:42:32.528Z,1002.87
2018-08-22T11:43:32.560Z,1002.79
2018-08-22T11:44:32.581Z,1002.75
2018-08-22T11:45:32.604Z,1002.78
2018-08-22T11:46:32.629Z,1002.80
2018-08-22T11:47:32.655Z,1002.77
2018-08-22T11:48:32.679Z,1002.80
2018-08-22T11:49:32.712Z,1002.79
2018-08-22T11:50:32.730Z,1002.80
2018-08-22T11:51:32.758Z,1002.76
2018-08-22T11:52:32.782Z,1002.67
2018-08-22T11:53:32.805Z,1002.62
2018-08-22T11:54:32.836Z,1002.60
2018-08-22T11:55:32.859Z,1002.59
2018-08-22T11:56:32.885Z,1002.57
2018-08-22T11:57:32.909Z,1002.63
2018-08-22T11:58:32.932Z,1002.66
2018-08-22T11:59:32.958Z,1002.63
2018-08-22T12:00:32.985Z,1002.63
2018-08-22T12:01:33.010Z,1002.62
2018-08-22T12:02:33.036Z,1002.66
2018-08-22T12:03:33.061Z,1002.65
2018-08-22T12:04:33.082Z,1002.59
2018-08-22T12:05:33.119Z,1002.66